createdAt,value
2023-09-13T00:02:26.447Z,6.80
2023-09-13T00:04:55.849Z,6.47
2023-09-13T00:07:24.184Z,6.40
2023-09-13T00:09:52.314Z,6.63
2023-09-13T00:12:20.293Z,6.80
2023-09-13T00:14:49.455Z,7.00
2023-09-13T00:17:18.893Z,6.60
2023-09-13T00:19:48.250Z,6.13
2023-09-13T00:22:16.593Z,6.33
2023-09-13T00:24:44.658Z,6.47
2023-09-13T00:27:12.637Z,7.03
2023-09-13T00:29:40.700Z,7.07
2023-09-13T00:32:08.824Z,7.00
2023-09-13T00:34:36.822Z,7.30
2023-09-13T00:37:06.419Z,6.70
2023-09-13T00:39:34.681Z,7.50
2023-09-13T00:42:02.726Z,8.03
2023-09-13T00:44:30.762Z,7.70
2023-09-13T00:46:59.057Z,6.90
2023-09-13T00:49:27.790Z,8.30
2023-09-13T00:51:56.576Z,7.73
2023-09-13T00:54:26.913Z,7.40
2023-09-13T00:56:55.124Z,8.27
2023-09-13T00:59:23.513Z,7.43
2023-09-13T01:01:51.589Z,8.03
2023-09-13T01:04:19.916Z,8.63
2023-09-13T01:06:48.536Z,8.60
2023-09-13T01:09:17.155Z,9.60
2023-09-13T01:11:47.022Z,8.27
2023-09-13T01:14:15.036Z,9.67
2023-09-13T01:16:51.312Z,9.07
2023-09-13T01:19:40.096Z,8.80
2023-09-13T01:22:26.331Z,9.60
2023-09-13T01:25:41.535Z,9.87
2023-09-13T01:28:17.550Z,9.63
2023-09-13T01:30:47.232Z,10.30
2023-09-13T01:33:15.374Z,11.17
2023-09-13T01:35:43.481Z,10.57
2023-09-13T01:38:12.084Z,10.13
2023-09-13T01:40:43.289Z,10.80
2023-09-13T01:43:12.077Z,10.43
2023-09-13T01:45:40.940Z,10.77
2023-09-13T01:48:12.241Z,10.70
2023-09-13T01:50:41.169Z,11.30
2023-09-13T01:53:09.196Z,10.33
2023-09-13T01:55:37.770Z,10.13
2023-09-13T01:58:06.105Z,10.80
2023-09-13T02:00:34.170Z,9.90
2023-09-13T02:03:02.379Z,9.80
2023-09-13T02:05:31.848Z,9.90
2023-09-13T02:08:00.255Z,9.47
2023-09-13T02:10:28.291Z,10.73
2023-09-13T02:12:56.358Z,9.53
2023-09-13T02:15:24.390Z,8.97
2023-09-13T02:17:52.553Z,9.53
2023-09-13T02:20:20.619Z,10.00
2023-09-13T02:22:49.991Z,9.13
2023-09-13T02:25:18.755Z,8.83
2023-09-13T02:27:46.836Z,8.27
2023-09-13T02:30:14.983Z,8.50
2023-09-13T02:32:43.353Z,8.70
2023-09-13T02:35:12.961Z,9.17
2023-09-13T02:37:41.428Z,8.30
2023-09-13T02:40:12.909Z,8.23
2023-09-13T02:42:41.029Z,8.27
2023-09-13T02:45:10.503Z,8.10
2023-09-13T02:47:38.531Z,8.40
2023-09-13T02:50:07.537Z,8.23
2023-09-13T02:52:36.687Z,7.67
2023-09-13T02:55:06.778Z,7.63
2023-09-13T02:57:36.219Z,7.13
2023-09-13T03:00:06.157Z,7.20
2023-09-13T03:02:34.409Z,7.67
2023-09-13T03:05:02.472Z,7.13
2023-09-13T03:07:30.468Z,7.63
2023-09-13T03:09:58.949Z,7.20
2023-09-13T03:12:27.140Z,7.07
2023-09-13T03:14:58.348Z,7.20
2023-09-13T03:17:26.422Z,6.80
2023-09-13T03:19:54.738Z,7.20
2023-09-13T03:22:22.800Z,7.97
2023-09-13T03:24:50.922Z,7.10
2023-09-13T03:27:18.936Z,7.20
2023-09-13T03:29:46.969Z,7.30
2023-09-13T03:32:16.358Z,7.30
2023-09-13T03:34:44.353Z,7.23
2023-09-13T03:37:12.830Z,8.13
2023-09-13T03:39:40.820Z,7.70
2023-09-13T03:42:08.899Z,8.30
2023-09-13T03:44:36.948Z,8.53
2023-09-13T03:47:05.271Z,7.30
2023-09-13T03:49:34.706Z,8.50
2023-09-13T03:52:04.246Z,8.63
2023-09-13T03:54:32.276Z,8.50
2023-09-13T03:57:00.287Z,8.73
2023-09-13T03:59:28.248Z,8.40
2023-09-13T04:01:59.135Z,12.80
2023-09-13T04:04:27.808Z,11.20
2023-09-13T04:06:57.288Z,11.33
2023-09-13T04:09:25.402Z,11.63
2023-09-13T04:11:53.409Z,10.07
2023-09-13T04:14:21.423Z,10.93
2023-09-13T04:16:49.513Z,10.30
2023-09-13T04:19:17.603Z,10.03
2023-09-13T04:21:45.779Z,10.00
2023-09-13T04:24:15.267Z,9.37
2023-09-13T04:26:43.375Z,8.60
2023-09-13T04:29:11.345Z,9.93
2023-09-13T04:31:39.504Z,9.27
2023-09-13T04:34:07.610Z,11.60
2023-09-13T04:36:36.789Z,10.83
2023-09-13T04:39:05.433Z,9.07
2023-09-13T04:41:34.825Z,9.27
2023-09-13T04:44:03.426Z,9.83
2023-09-13T04:46:31.664Z,9.80
2023-09-13T04:48:59.782Z,8.57
2023-09-13T04:51:27.954Z,8.90
2023-09-13T04:53:56.192Z,9.57
2023-09-13T04:56:24.337Z,8.77
2023-09-13T04:58:53.712Z,9.10
2023-09-13T05:01:21.870Z,8.90
2023-09-13T05:03:51.169Z,8.23
2023-09-13T05:06:19.511Z,8.10
2023-09-13T05:08:47.706Z,8.30
2023-09-13T05:11:15.717Z,7.95
2023-09-13T05:13:44.083Z,8.00
2023-09-13T05:16:14.068Z,7.32
2023-09-13T05:18:42.451Z,8.20
2023-09-13T05:21:10.578Z,7.80
2023-09-13T05:23:38.602Z,7.65
2023-09-13T05:26:06.827Z,7.47
2023-09-13T05:28:35.415Z,10.52
2023-09-13T05:31:04.299Z,9.00
2023-09-13T05:33:35.232Z,9.45
2023-09-13T05:36:05.358Z,9.63
2023-09-13T05:38:33.855Z,8.48
2023-09-13T05:41:08.487Z,8.65
2023-09-13T05:43:36.626Z,8.30
2023-09-13T05:46:04.950Z,10.00
2023-09-13T05:48:34.541Z,8.07
2023-09-13T05:51:02.788Z,8.80
2023-09-13T05:53:31.104Z,9.10
2023-09-13T05:55:59.620Z,8.95
2023-09-13T05:58:27.715Z,8.70
2023-09-13T06:00:57.212Z,9.40
2023-09-13T06:03:25.789Z,9.18
2023-09-13T06:05:55.314Z,12.48
2023-09-13T06:08:23.344Z,9.65
2023-09-13T06:10:51.504Z,8.27
2023-09-13T06:13:19.550Z,7.60
2023-09-13T06:15:47.591Z,7.97
2023-09-13T06:18:15.922Z,8.48
2023-09-13T06:20:44.554Z,8.40
2023-09-13T06:23:35.012Z,8.00
2023-09-13T06:26:03.773Z,8.00
2023-09-13T06:28:32.389Z,7.75
2023-09-13T06:31:04.526Z,7.55
2023-09-13T06:33:41.704Z,7.75
2023-09-13T06:36:12.229Z,7.70
2023-09-13T06:38:43.088Z,7.60
2023-09-13T06:41:11.444Z,9.48
2023-09-13T06:44:00.812Z,9.85
2023-09-13T06:46:31.160Z,9.43
2023-09-13T06:48:59.817Z,9.35
2023-09-13T06:54:02.111Z,9.27
2023-09-13T06:56:34.196Z,8.57
2023-09-13T06:59:06.848Z,8.55
2023-09-13T07:01:58.616Z,8.10
2023-09-13T07:04:31.577Z,8.00
2023-09-13T07:07:04.689Z,8.30
2023-09-13T07:09:34.178Z,7.85
2023-09-13T07:12:02.251Z,7.72
2023-09-13T07:14:30.409Z,7.65
2023-09-13T07:16:58.459Z,7.45
2023-09-13T07:19:26.593Z,6.72
2023-09-13T07:21:54.606Z,6.78
2023-09-13T07:24:22.793Z,6.30
2023-09-13T07:26:52.188Z,6.88
2023-09-13T07:29:20.618Z,6.40
2023-09-13T07:31:48.977Z,7.18
2023-09-13T07:34:30.890Z,7.57
2023-09-13T07:37:00.403Z,6.63
2023-09-13T07:39:29.534Z,7.68
2023-09-13T07:41:59.808Z,6.72
2023-09-13T07:44:28.012Z,6.85
2023-09-13T07:46:56.157Z,7.50
2023-09-13T07:49:27.383Z,6.82
2023-09-13T07:51:55.503Z,7.30
2023-09-13T07:54:23.525Z,7.80
2023-09-13T07:56:51.732Z,7.80
2023-09-13T07:59:22.501Z,7.07
2023-09-13T08:01:51.676Z,6.85
2023-09-13T08:04:20.408Z,7.25
2023-09-13T08:06:49.025Z,7.18
2023-09-13T08:09:17.945Z,7.72
2023-09-13T08:11:48.367Z,7.40
2023-09-13T08:14:16.438Z,7.85
2023-09-13T08:16:46.691Z,7.72
2023-09-13T08:19:15.271Z,7.47
2023-09-13T08:21:43.478Z,7.15
2023-09-13T08:24:11.715Z,7.38
2023-09-13T08:26:40.013Z,7.90
2023-09-13T08:29:08.098Z,7.03
2023-09-13T08:31:36.113Z,7.90
2023-09-13T08:34:05.878Z,9.48
2023-09-13T08:36:35.286Z,7.65
2023-09-13T08:39:06.473Z,10.88
2023-09-13T08:41:35.036Z,8.02
2023-09-13T08:44:06.126Z,7.88
2023-09-13T08:46:35.552Z,8.30
2023-09-13T08:49:07.364Z,7.13
2023-09-13T08:51:36.572Z,7.32
2023-09-13T08:54:05.479Z,7.45
2023-09-13T08:56:33.855Z,6.32
2023-09-13T08:59:02.962Z,6.00
2023-09-13T09:01:32.966Z,6.57
2023-09-13T09:04:02.428Z,6.15
2023-09-13T09:06:33.649Z,6.40
2023-09-13T09:09:05.357Z,5.93
2023-09-13T09:11:35.390Z,6.10
2023-09-13T09:14:04.767Z,5.60
2023-09-13T09:16:33.599Z,5.85
2023-09-13T09:19:06.080Z,5.50
2023-09-13T09:21:36.358Z,5.15
2023-09-13T09:24:04.609Z,5.05
2023-09-13T09:26:32.919Z,5.28
2023-09-13T09:29:11.935Z,5.40
2023-09-13T09:31:40.383Z,5.45
2023-09-13T09:34:08.710Z,5.57
2023-09-13T09:36:43.727Z,5.40
2023-09-13T09:39:12.602Z,5.22
2023-09-13T09:41:41.637Z,5.88
2023-09-13T09:44:10.013Z,6.00
2023-09-13T09:46:38.559Z,5.85
2023-09-13T09:49:07.036Z,6.25
2023-09-13T09:51:35.416Z,5.18
2023-09-13T09:54:04.969Z,5.28
2023-09-13T09:56:33.015Z,5.72
2023-09-13T09:59:02.145Z,5.70
2023-09-13T10:01:32.514Z,7.85
2023-09-13T10:04:10.221Z,6.13
2023-09-13T10:06:38.457Z,4.80
2023-09-13T10:09:08.121Z,5.47
2023-09-13T10:11:37.519Z,6.32
2023-09-13T10:14:05.639Z,5.60
2023-09-13T10:16:35.066Z,5.45
2023-09-13T10:19:07.389Z,5.32
2023-09-13T10:21:36.490Z,5.28
2023-09-13T10:24:08.539Z,6.40
2023-09-13T10:26:37.185Z,7.00
2023-09-13T10:29:13.145Z,6.03
2023-09-13T10:31:44.737Z,5.72
2023-09-13T10:34:18.493Z,5.25
2023-09-13T10:36:50.930Z,6.63
2023-09-13T10:39:24.835Z,6.18
2023-09-13T10:42:00.241Z,6.65
2023-09-13T10:44:28.318Z,5.75
2023-09-13T10:46:57.757Z,5.93
2023-09-13T10:49:26.870Z,5.82
2023-09-13T10:51:57.415Z,5.85
2023-09-13T10:54:27.908Z,6.70
2023-09-13T10:56:56.202Z,6.00
2023-09-13T10:59:26.990Z,5.63
2023-09-13T11:01:55.208Z,6.57
2023-09-13T11:04:25.228Z,6.18
2023-09-13T11:06:55.724Z,6.28
2023-09-13T11:09:30.181Z,5.43
2023-09-13T11:11:59.450Z,5.55
2023-09-13T11:14:28.646Z,5.78
2023-09-13T11:16:58.910Z,6.07
2023-09-13T11:19:28.645Z,7.10
2023-09-13T11:22:01.669Z,5.88
2023-09-13T11:24:54.623Z,7.30
2023-09-13T11:27:27.438Z,7.95
2023-09-13T11:30:00.287Z,6.32
2023-09-13T11:32:32.698Z,10.23
2023-09-13T11:35:02.478Z,8.70
2023-09-13T11:37:34.652Z,18.02
2023-09-13T11:40:13.409Z,8.65
2023-09-13T11:45:32.438Z,7.00
2023-09-13T11:48:03.970Z,6.70
2023-09-13T11:50:48.941Z,7.28
2023-09-13T11:53:26.354Z,8.95
2023-09-13T11:56:11.716Z,7.50
2023-09-13T11:58:55.847Z,14.00
2023-09-13T12:01:27.740Z,8.80
2023-09-13T12:06:33.497Z,6.85
2023-09-13T12:09:15.089Z,5.70
2023-09-13T12:11:48.869Z,7.93
2023-09-13T12:14:30.818Z,6.15
2023-09-13T12:17:08.936Z,8.70
2023-09-13T12:19:38.600Z,5.45
2023-09-13T12:22:07.010Z,5.35
2023-09-13T12:24:52.980Z,4.97
2023-09-13T12:27:25.128Z,5.40
2023-09-13T12:29:53.421Z,6.07
2023-09-13T12:32:21.916Z,5.70
2023-09-13T12:34:50.429Z,7.22
2023-09-13T12:37:18.961Z,4.55
2023-09-13T12:39:47.063Z,4.82
2023-09-13T12:42:16.328Z,4.78
2023-09-13T12:44:47.460Z,4.88
2023-09-13T12:47:19.169Z,5.20
2023-09-13T12:49:47.637Z,4.95
2023-09-13T12:52:17.736Z,5.53
2023-09-13T12:54:47.422Z,5.32
2023-09-13T12:57:15.980Z,5.90
2023-09-13T12:59:48.141Z,4.93
2023-09-13T13:02:17.406Z,5.47
2023-09-13T13:04:46.431Z,4.97
2023-09-13T13:07:22.847Z,5.00
2023-09-13T13:09:54.478Z,4.68
2023-09-13T13:12:22.829Z,4.60
2023-09-13T13:14:53.258Z,4.85
2023-09-13T13:17:22.587Z,5.45
2023-09-13T13:19:56.792Z,5.22
2023-09-13T13:22:28.745Z,5.82
2023-09-13T13:24:57.058Z,5.18
2023-09-13T13:27:25.486Z,5.85
2023-09-13T13:29:57.575Z,4.25
2023-09-13T13:32:25.596Z,5.70
2023-09-13T13:34:53.748Z,5.25
2023-09-13T13:37:22.057Z,5.70
2023-09-13T13:39:51.238Z,5.43
2023-09-13T13:42:19.394Z,5.53
2023-09-13T13:44:47.486Z,5.68
2023-09-13T13:47:16.935Z,7.15
2023-09-13T13:49:45.270Z,5.80
2023-09-13T13:52:13.346Z,6.60
2023-09-13T13:54:41.875Z,4.60
2023-09-13T13:57:10.199Z,4.65
2023-09-13T13:59:38.505Z,4.65
2023-09-13T14:02:07.355Z,4.45
2023-09-13T14:04:37.608Z,6.25
2023-09-13T14:07:06.464Z,5.75
2023-09-13T14:09:34.598Z,5.03
2023-09-13T14:12:02.684Z,4.70
2023-09-13T14:14:31.066Z,4.75
2023-09-13T14:16:59.946Z,10.07
2023-09-13T14:19:28.680Z,5.88
2023-09-13T14:21:59.954Z,5.28
2023-09-13T14:24:28.089Z,4.95
2023-09-13T14:26:56.784Z,4.68
2023-09-13T14:29:24.981Z,4.43
2023-09-13T14:31:57.563Z,4.25
2023-09-13T14:34:26.819Z,4.95
2023-09-13T14:36:55.658Z,4.63
2023-09-13T14:39:26.203Z,4.32
2023-09-13T14:41:54.787Z,5.70
2023-09-13T14:44:25.358Z,4.78
2023-09-13T14:46:54.378Z,5.05
2023-09-13T14:49:23.834Z,4.50
2023-09-13T14:51:52.234Z,4.63
2023-09-13T14:54:20.350Z,5.47
2023-09-13T14:56:50.248Z,5.35
2023-09-13T14:59:19.939Z,5.60
2023-09-13T15:01:48.053Z,4.20
2023-09-13T15:04:16.286Z,4.80
2023-09-13T15:06:44.758Z,5.68
2023-09-13T15:09:13.557Z,4.60
2023-09-13T15:11:42.844Z,4.70
2023-09-13T15:14:12.788Z,4.57
2023-09-13T15:16:42.617Z,4.20
2023-09-13T15:19:11.288Z,4.55
2023-09-13T15:21:41.103Z,5.05
2023-09-13T15:24:09.301Z,4.07
2023-09-13T15:26:37.541Z,4.32
2023-09-13T15:29:05.863Z,4.03
2023-09-13T15:32:01.609Z,5.22
2023-09-13T15:34:23.299Z,4.95
2023-09-13T15:36:52.566Z,4.57
2023-09-13T15:39:21.174Z,4.60
2023-09-13T15:41:49.727Z,5.78
2023-09-13T15:44:18.102Z,5.47
2023-09-13T15:46:49.676Z,5.95
2023-09-13T15:49:23.475Z,5.82
2023-09-13T15:51:51.936Z,5.45
2023-09-13T15:54:20.577Z,5.18
2023-09-13T15:56:49.251Z,5.22
2023-09-13T15:59:17.365Z,6.53
2023-09-13T16:01:45.542Z,6.18
2023-09-13T16:04:15.124Z,5.40
2023-09-13T16:06:43.459Z,5.68
2023-09-13T16:09:12.384Z,5.95
2023-09-13T16:11:40.573Z,5.78
2023-09-13T16:14:09.438Z,6.28
2023-09-13T16:16:38.150Z,5.00
2023-09-13T16:19:06.527Z,4.55
2023-09-13T16:21:36.058Z,4.90
2023-09-13T16:24:04.420Z,5.47
2023-09-13T16:26:32.946Z,4.28
2023-09-13T16:29:00.988Z,4.15
2023-09-13T16:31:30.997Z,4.32
2023-09-13T16:34:01.320Z,4.47
2023-09-13T16:36:30.776Z,4.90
2023-09-13T16:39:00.188Z,6.35
2023-09-13T16:41:28.762Z,6.50
2023-09-13T16:44:00.225Z,6.90
2023-09-13T16:46:28.900Z,7.25
2023-09-13T16:48:57.360Z,8.57
2023-09-13T16:51:25.775Z,7.97
2023-09-13T16:53:53.878Z,6.95
2023-09-13T16:56:25.725Z,7.53
2023-09-13T16:58:56.487Z,7.15
2023-09-13T17:01:24.605Z,7.45
2023-09-13T17:03:53.879Z,7.07
2023-09-13T17:06:22.665Z,6.60
2023-09-13T17:08:51.032Z,6.63
2023-09-13T17:11:19.789Z,6.07
2023-09-13T17:13:49.356Z,6.30
2023-09-13T17:16:18.023Z,6.28
2023-09-13T17:18:46.269Z,6.28
2023-09-13T17:21:14.877Z,5.90
2023-09-13T17:23:42.928Z,6.93
2023-09-13T17:26:10.915Z,6.60
2023-09-13T17:28:39.006Z,6.57
2023-09-13T17:31:08.485Z,6.15
2023-09-13T17:33:37.243Z,5.32
2023-09-13T17:36:06.866Z,6.25
2023-09-13T17:38:35.303Z,5.82
2023-09-13T17:41:04.133Z,5.93
2023-09-13T17:43:32.199Z,5.30
2023-09-13T17:46:00.494Z,4.45
2023-09-13T17:48:29.980Z,4.35
2023-09-13T17:50:58.098Z,4.80
2023-09-13T17:53:26.161Z,4.97
2023-09-13T17:55:55.971Z,5.28
2023-09-13T17:58:24.170Z,6.65
2023-09-13T18:00:52.309Z,5.35
2023-09-13T18:03:20.537Z,6.10
2023-09-13T18:05:50.238Z,5.05
2023-09-13T18:08:18.321Z,5.18
2023-09-13T18:10:46.662Z,4.45
2023-09-13T18:13:14.750Z,5.13
2023-09-13T18:15:43.114Z,4.78
2023-09-13T18:18:11.452Z,4.97
2023-09-13T18:20:39.846Z,4.55
2023-09-13T18:23:09.726Z,5.07
2023-09-13T18:25:37.760Z,4.97
2023-09-13T18:28:06.964Z,4.53
2023-09-13T18:30:35.438Z,4.78
2023-09-13T18:33:03.790Z,5.20
2023-09-13T18:35:35.147Z,5.18
2023-09-13T18:38:04.521Z,4.53
2023-09-13T18:40:34.061Z,4.90
2023-09-13T18:43:04.290Z,4.60
2023-09-13T18:45:38.195Z,5.22
2023-09-13T18:48:09.192Z,4.85
2023-09-13T18:50:37.589Z,5.00
2023-09-13T18:53:06.045Z,5.15
2023-09-13T18:55:35.441Z,5.28
2023-09-13T18:58:04.079Z,5.20
2023-09-13T19:00:33.551Z,4.82
2023-09-13T19:03:01.692Z,4.95
2023-09-13T19:05:29.831Z,5.00
2023-09-13T19:07:57.830Z,5.05
2023-09-13T19:10:25.913Z,5.15
2023-09-13T19:12:55.359Z,4.78
2023-09-13T19:15:23.449Z,5.10
2023-09-13T19:17:52.831Z,4.82
2023-09-13T19:20:22.920Z,4.90
2023-09-13T19:22:51.329Z,5.20
2023-09-13T19:25:20.352Z,4.60
2023-09-13T19:27:48.810Z,4.75
2023-09-13T19:30:18.588Z,4.82
2023-09-13T19:32:46.635Z,5.00
2023-09-13T19:35:15.718Z,5.70
2023-09-13T19:37:44.220Z,5.30
2023-09-13T19:40:13.117Z,5.18
2023-09-13T19:42:41.214Z,5.20
2023-09-13T19:45:09.892Z,5.57
2023-09-13T19:47:39.314Z,4.97
2023-09-13T19:50:09.644Z,5.07
2023-09-13T19:52:37.754Z,5.10
2023-09-13T19:55:07.353Z,5.05
2023-09-13T19:57:35.427Z,5.20
2023-09-13T20:00:06.119Z,5.18
2023-09-13T20:02:34.227Z,4.95
2023-09-13T20:05:03.842Z,4.90
2023-09-13T20:07:35.959Z,4.72
2023-09-13T20:10:05.555Z,4.80
2023-09-13T20:12:33.794Z,5.13
2023-09-13T20:15:02.581Z,4.95
2023-09-13T20:17:31.988Z,5.45
2023-09-13T20:20:00.129Z,5.38
2023-09-13T20:22:32.237Z,5.40
2023-09-13T20:25:01.289Z,5.65
2023-09-13T20:27:29.411Z,5.53
2023-09-13T20:29:57.421Z,5.35
2023-09-13T20:32:26.022Z,6.65
2023-09-13T20:34:58.106Z,5.60
2023-09-13T20:37:27.498Z,5.50
2023-09-13T20:39:58.393Z,5.30
2023-09-13T20:42:27.385Z,5.47
2023-09-13T20:44:56.441Z,5.70
2023-09-13T20:47:25.749Z,5.68
2023-09-13T20:49:53.812Z,5.07
2023-09-13T20:52:22.015Z,5.05
2023-09-13T20:54:52.291Z,5.53
2023-09-13T20:57:21.694Z,5.60
2023-09-13T20:59:49.660Z,5.78
2023-09-13T21:02:17.788Z,5.22
2023-09-13T21:04:46.162Z,5.20
2023-09-13T21:07:14.359Z,7.55
2023-09-13T21:09:42.687Z,5.80
2023-09-13T21:12:11.626Z,6.22
2023-09-13T21:14:41.125Z,5.70
2023-09-13T21:17:09.154Z,5.65
2023-09-13T21:19:37.353Z,5.45
2023-09-13T21:22:05.813Z,4.95
2023-09-13T21:24:34.776Z,5.93
2023-09-13T21:27:02.846Z,5.65
2023-09-13T21:29:30.876Z,5.97
2023-09-13T21:32:00.296Z,5.75
2023-09-13T21:34:30.322Z,8.00
2023-09-13T21:36:58.419Z,8.10
2023-09-13T21:39:27.110Z,7.80
2023-09-13T21:41:55.080Z,6.50
2023-09-13T21:44:23.110Z,6.57
2023-09-13T21:46:53.391Z,6.10
2023-09-13T21:49:22.844Z,5.72
2023-09-13T21:51:51.010Z,5.88
2023-09-13T21:54:19.053Z,5.85
2023-09-13T21:56:47.075Z,5.88
2023-09-13T21:59:15.162Z,5.38
2023-09-13T22:01:43.535Z,5.70
2023-09-13T22:04:13.959Z,5.57
2023-09-13T22:06:43.690Z,6.03
2023-09-13T22:09:12.367Z,6.35
2023-09-13T22:11:40.620Z,5.93
2023-09-13T22:14:08.928Z,6.25
2023-09-13T22:16:37.107Z,6.22
2023-09-13T22:19:05.350Z,6.40
2023-09-13T22:21:35.088Z,6.17
2023-09-13T22:24:05.595Z,7.47
2023-09-13T22:26:33.888Z,5.80
2023-09-13T22:29:03.104Z,6.03
2023-09-13T22:31:31.305Z,6.30
2023-09-13T22:34:00.472Z,5.80
2023-09-13T22:36:29.621Z,6.33
2023-09-13T22:39:06.466Z,6.20
2023-09-13T22:41:41.512Z,6.47
2023-09-13T22:44:10.064Z,5.87
2023-09-13T22:46:38.528Z,6.17
2023-09-13T22:49:06.783Z,6.27
2023-09-13T22:51:34.933Z,5.87
2023-09-13T22:54:04.329Z,6.00
2023-09-13T22:56:32.521Z,5.90
2023-09-13T22:59:02.073Z,5.73
2023-09-13T23:01:30.212Z,6.43
2023-09-13T23:03:58.407Z,5.73
2023-09-13T23:06:54.515Z,6.77
2023-09-13T23:09:23.356Z,6.50
2023-09-13T23:11:51.769Z,6.37
2023-09-13T23:14:21.217Z,6.00
2023-09-13T23:16:49.348Z,7.03
2023-09-13T23:19:17.469Z,6.30
2023-09-13T23:21:45.574Z,6.17
2023-09-13T23:24:14.032Z,6.20
2023-09-13T23:26:42.649Z,6.40
2023-09-13T23:29:13.674Z,6.27
2023-09-13T23:31:43.565Z,5.93
2023-09-13T23:34:12.944Z,6.03
2023-09-13T23:36:41.169Z,6.37
2023-09-13T23:39:09.849Z,5.77
2023-09-13T23:41:38.096Z,6.40
2023-09-13T23:44:06.533Z,6.00
2023-09-13T23:46:34.722Z,6.23
2023-09-13T23:49:04.521Z,5.70
2023-09-13T23:51:32.749Z,6.17
2023-09-13T23:54:00.882Z,6.20
2023-09-13T23:56:29.101Z,6.30
2023-09-13T23:58:57.575Z,6.47
